Terminal Aerodrome Forecast
Issued by NWS

Home | Current Version | Previous Version | Text Only | Print | Product List | Glossary On
Versions: 1 2 3 4 5 6 7 8 9 10 11
000
FTUS43 KLSX 270800 AAA
TAFSUS
TAF AMD
KSUS 270851Z 2709/2806 20008KT P6SM OVC025
     FM271600 28010KT P6SM OVC015
     FM272000 30008KT P6SM OVC040=

USA.gov is the U.S. government's official web portal to all federal, state and local government web resources and services.